sensor_id;sensor_type;location;lat;lon;timestamp;P1;durP1;ratioP1;P2;durP2;ratioP2
70073;SDS011;57445;51.058;3.698;2022-12-07T00:01:43;11.90;;;5.30;;
70073;SDS011;57445;51.058;3.698;2022-12-07T00:04:13;9.10;;;5.10;;
70073;SDS011;57445;51.058;3.698;2022-12-07T00:09:28;10.32;;;5.47;;
70073;SDS011;57445;51.058;3.698;2022-12-07T00:12:01;9.38;;;5.38;;
70073;SDS011;57445;51.058;3.698;2022-12-07T00:14:28;9.23;;;4.22;;
70073;SDS011;57445;51.058;3.698;2022-12-07T00:16:56;9.65;;;5.00;;
70073;SDS011;57445;51.058;3.698;2022-12-07T00:19:24;10.82;;;4.65;;
70073;SDS011;57445;51.058;3.698;2022-12-07T00:21:51;10.93;;;4.10;;
70073;SDS011;57445;51.058;3.698;2022-12-07T00:24:20;10.35;;;3.63;;
70073;SDS011;57445;51.058;3.698;2022-12-07T00:26:48;8.65;;;3.90;;
70073;SDS011;57445;51.058;3.698;2022-12-07T00:29:16;11.52;;;3.80;;
70073;SDS011;57445;51.058;3.698;2022-12-07T00:31:46;9.93;;;3.63;;
70073;SDS011;57445;51.058;3.698;2022-12-07T00:34:14;11.88;;;3.65;;
70073;SDS011;57445;51.058;3.698;2022-12-07T00:36:48;9.73;;;3.85;;
70073;SDS011;57445;51.058;3.698;2022-12-07T00:39:16;9.00;;;3.17;;
70073;SDS011;57445;51.058;3.698;2022-12-07T00:41:46;5.88;;;2.97;;
70073;SDS011;57445;51.058;3.698;2022-12-07T00:44:13;9.60;;;3.22;;
70073;SDS011;57445;51.058;3.698;2022-12-07T00:46:45;10.45;;;3.40;;
70073;SDS011;57445;51.058;3.698;2022-12-07T00:49:13;11.65;;;3.65;;
70073;SDS011;57445;51.058;3.698;2022-12-07T00:51:41;7.55;;;3.30;;
70073;SDS011;57445;51.058;3.698;2022-12-07T00:54:09;9.57;;;3.80;;
70073;SDS011;57445;51.058;3.698;2022-12-07T00:56:37;6.28;;;3.17;;
70073;SDS011;57445;51.058;3.698;2022-12-07T00:59:06;8.05;;;3.67;;
70073;SDS011;57445;51.058;3.698;2022-12-07T01:01:34;8.73;;;3.50;;
70073;SDS011;57445;51.058;3.698;2022-12-07T01:04:03;7.13;;;3.60;;
70073;SDS011;57445;51.058;3.698;2022-12-07T01:06:31;10.02;;;3.75;;
70073;SDS011;57445;51.058;3.698;2022-12-07T01:08:59;8.15;;;3.55;;
70073;SDS011;57445;51.058;3.698;2022-12-07T01:11:28;10.70;;;4.05;;
70073;SDS011;57445;51.058;3.698;2022-12-07T01:14:16;7.93;;;4.18;;
70073;SDS011;57445;51.058;3.698;2022-12-07T01:16:48;10.55;;;4.30;;
70073;SDS011;57445;51.058;3.698;2022-12-07T01:19:16;8.52;;;4.18;;
70073;SDS011;57445;51.058;3.698;2022-12-07T01:21:51;8.80;;;4.05;;
70073;SDS011;57445;51.058;3.698;2022-12-07T01:24:18;10.45;;;4.47;;
70073;SDS011;57445;51.058;3.698;2022-12-07T01:26:51;9.15;;;4.40;;
70073;SDS011;57445;51.058;3.698;2022-12-07T01:29:24;10.48;;;4.65;;
70073;SDS011;57445;51.058;3.698;2022-12-07T01:31:52;8.82;;;4.35;;
70073;SDS011;57445;51.058;3.698;2022-12-07T01:34:21;11.02;;;4.60;;
70073;SDS011;57445;51.058;3.698;2022-12-07T01:36:53;8.27;;;4.78;;
70073;SDS011;57445;51.058;3.698;2022-12-07T01:39:21;8.27;;;4.90;;
70073;SDS011;57445;51.058;3.698;2022-12-07T01:41:48;8.88;;;4.78;;
70073;SDS011;57445;51.058;3.698;2022-12-07T01:44:17;8.80;;;5.50;;
70073;SDS011;57445;51.058;3.698;2022-12-07T01:46:49;9.30;;;5.50;;
70073;SDS011;57445;51.058;3.698;2022-12-07T01:49:23;9.25;;;5.40;;
70073;SDS011;57445;51.058;3.698;2022-12-07T01:51:56;11.65;;;6.10;;
70073;SDS011;57445;51.058;3.698;2022-12-07T01:54:32;11.73;;;6.18;;
70073;SDS011;57445;51.058;3.698;2022-12-07T01:57:05;9.98;;;5.72;;
70073;SDS011;57445;51.058;3.698;2022-12-07T01:59:34;13.48;;;6.30;;
70073;SDS011;57445;51.058;3.698;2022-12-07T02:02:05;10.70;;;6.45;;
70073;SDS011;57445;51.058;3.698;2022-12-07T02:04:43;15.65;;;7.03;;
70073;SDS011;57445;51.058;3.698;2022-12-07T02:07:16;11.43;;;6.43;;
70073;SDS011;57445;51.058;3.698;2022-12-07T02:09:44;12.80;;;7.43;;
70073;SDS011;57445;51.058;3.698;2022-12-07T02:12:12;13.07;;;7.60;;
70073;SDS011;57445;51.058;3.698;2022-12-07T02:14:41;11.05;;;6.95;;
70073;SDS011;57445;51.058;3.698;2022-12-07T02:17:16;12.13;;;7.38;;
70073;SDS011;57445;51.058;3.698;2022-12-07T02:22:58;13.00;;;8.23;;
70073;SDS011;57445;51.058;3.698;2022-12-07T02:26:09;13.65;;;7.95;;
70073;SDS011;57445;51.058;3.698;2022-12-07T02:31:55;13.75;;;8.50;;
70073;SDS011;57445;51.058;3.698;2022-12-07T02:34:32;17.90;;;8.98;;
70073;SDS011;57445;51.058;3.698;2022-12-07T02:37:14;13.45;;;8.43;;
70073;SDS011;57445;51.058;3.698;2022-12-07T02:39:49;13.23;;;8.35;;
70073;SDS011;57445;51.058;3.698;2022-12-07T02:42:22;14.55;;;8.40;;
70073;SDS011;57445;51.058;3.698;2022-12-07T02:44:55;14.82;;;7.95;;
70073;SDS011;57445;51.058;3.698;2022-12-07T02:47:23;13.00;;;7.40;;
70073;SDS011;57445;51.058;3.698;2022-12-07T02:49:52;13.13;;;7.05;;
70073;SDS011;57445;51.058;3.698;2022-12-07T02:52:24;12.15;;;7.30;;
70073;SDS011;57445;51.058;3.698;2022-12-07T02:54:52;12.13;;;6.93;;
70073;SDS011;57445;51.058;3.698;2022-12-07T02:57:25;12.63;;;7.35;;
70073;SDS011;57445;51.058;3.698;2022-12-07T03:00:07;14.25;;;6.63;;
70073;SDS011;57445;51.058;3.698;2022-12-07T03:02:42;12.55;;;6.55;;
70073;SDS011;57445;51.058;3.698;2022-12-07T03:05:27;10.35;;;5.75;;
70073;SDS011;57445;51.058;3.698;2022-12-07T03:08:19;11.07;;;5.68;;
70073;SDS011;57445;51.058;3.698;2022-12-07T03:10:54;13.10;;;5.53;;
70073;SDS011;57445;51.058;3.698;2022-12-07T03:13:28;12.00;;;5.47;;
70073;SDS011;57445;51.058;3.698;2022-12-07T03:16:02;10.25;;;5.32;;
70073;SDS011;57445;51.058;3.698;2022-12-07T03:18:36;11.80;;;5.22;;
70073;SDS011;57445;51.058;3.698;2022-12-07T03:21:09;11.45;;;5.18;;
70073;SDS011;57445;51.058;3.698;2022-12-07T03:23:41;9.32;;;4.80;;
70073;SDS011;57445;51.058;3.698;2022-12-07T03:26:16;10.50;;;4.57;;
70073;SDS011;57445;51.058;3.698;2022-12-07T03:28:52;8.10;;;4.05;;
70073;SDS011;57445;51.058;3.698;2022-12-07T03:31:26;7.63;;;3.85;;
70073;SDS011;57445;51.058;3.698;2022-12-07T03:33:59;9.38;;;3.90;;
70073;SDS011;57445;51.058;3.698;2022-12-07T03:36:35;8.88;;;3.83;;
70073;SDS011;57445;51.058;3.698;2022-12-07T03:39:12;8.43;;;4.00;;
70073;SDS011;57445;51.058;3.698;2022-12-07T03:41:50;7.50;;;3.70;;
70073;SDS011;57445;51.058;3.698;2022-12-07T03:44:19;9.57;;;3.90;;
70073;SDS011;57445;51.058;3.698;2022-12-07T03:46:51;8.30;;;3.53;;
70073;SDS011;57445;51.058;3.698;2022-12-07T03:49:30;9.98;;;3.55;;
70073;SDS011;57445;51.058;3.698;2022-12-07T03:52:07;8.68;;;3.47;;
70073;SDS011;57445;51.058;3.698;2022-12-07T03:54:40;7.70;;;3.90;;
70073;SDS011;57445;51.058;3.698;2022-12-07T03:57:12;9.48;;;4.00;;
70073;SDS011;57445;51.058;3.698;2022-12-07T03:59:41;10.27;;;3.70;;
70073;SDS011;57445;51.058;3.698;2022-12-07T04:02:11;11.25;;;4.40;;
70073;SDS011;57445;51.058;3.698;2022-12-07T04:04:40;12.25;;;3.97;;
70073;SDS011;57445;51.058;3.698;2022-12-07T04:07:09;7.65;;;4.20;;
70073;SDS011;57445;51.058;3.698;2022-12-07T04:09:43;10.70;;;4.15;;
70073;SDS011;57445;51.058;3.698;2022-12-07T04:12:16;8.57;;;3.90;;
70073;SDS011;57445;51.058;3.698;2022-12-07T04:14:44;8.75;;;3.67;;
70073;SDS011;57445;51.058;3.698;2022-12-07T04:17:13;8.20;;;3.53;;
70073;SDS011;57445;51.058;3.698;2022-12-07T04:19:41;9.88;;;3.97;;
70073;SDS011;57445;51.058;3.698;2022-12-07T04:22:09;11.38;;;4.00;;
70073;SDS011;57445;51.058;3.698;2022-12-07T04:24:38;10.25;;;3.85;;
70073;SDS011;57445;51.058;3.698;2022-12-07T04:27:06;9.07;;;3.63;;
70073;SDS011;57445;51.058;3.698;2022-12-07T04:29:33;8.25;;;3.53;;
70073;SDS011;57445;51.058;3.698;2022-12-07T04:32:05;6.25;;;3.22;;
70073;SDS011;57445;51.058;3.698;2022-12-07T04:34:35;8.85;;;3.42;;
70073;SDS011;57445;51.058;3.698;2022-12-07T04:37:03;11.85;;;3.85;;
70073;SDS011;57445;51.058;3.698;2022-12-07T04:39:35;9.63;;;3.60;;
70073;SDS011;57445;51.058;3.698;2022-12-07T04:42:03;10.70;;;3.83;;
70073;SDS011;57445;51.058;3.698;2022-12-07T04:44:31;11.63;;;3.72;;
70073;SDS011;57445;51.058;3.698;2022-12-07T04:46:59;8.50;;;3.83;;
70073;SDS011;57445;51.058;3.698;2022-12-07T04:49:28;7.63;;;3.00;;
70073;SDS011;57445;51.058;3.698;2022-12-07T04:52:00;11.65;;;3.40;;
70073;SDS011;57445;51.058;3.698;2022-12-07T04:57:25;9.70;;;3.42;;
70073;SDS011;57445;51.058;3.698;2022-12-07T04:59:57;9.95;;;3.40;;
70073;SDS011;57445;51.058;3.698;2022-12-07T05:02:25;11.20;;;3.67;;
70073;SDS011;57445;51.058;3.698;2022-12-07T05:04:53;10.88;;;3.33;;
70073;SDS011;57445;51.058;3.698;2022-12-07T05:07:22;8.85;;;3.50;;
70073;SDS011;57445;51.058;3.698;2022-12-07T05:09:50;7.80;;;2.70;;
70073;SDS011;57445;51.058;3.698;2022-12-07T05:12:22;10.07;;;3.15;;
70073;SDS011;57445;51.058;3.698;2022-12-07T05:14:50;7.95;;;2.90;;
70073;SDS011;57445;51.058;3.698;2022-12-07T05:17:22;9.32;;;3.25;;
70073;SDS011;57445;51.058;3.698;2022-12-07T05:19:55;6.90;;;3.30;;
70073;SDS011;57445;51.058;3.698;2022-12-07T05:22:24;11.20;;;3.70;;
70073;SDS011;57445;51.058;3.698;2022-12-07T05:24:58;8.57;;;3.20;;
70073;SDS011;57445;51.058;3.698;2022-12-07T05:30:02;11.15;;;3.30;;
70073;SDS011;57445;51.058;3.698;2022-12-07T05:32:35;8.55;;;3.00;;
70073;SDS011;57445;51.058;3.698;2022-12-07T05:35:07;8.57;;;3.50;;
70073;SDS011;57445;51.058;3.698;2022-12-07T05:37:37;10.07;;;3.92;;
70073;SDS011;57445;51.058;3.698;2022-12-07T05:40:05;9.05;;;3.25;;
70073;SDS011;57445;51.058;3.698;2022-12-07T05:42:34;9.68;;;3.70;;
70073;SDS011;57445;51.058;3.698;2022-12-07T05:45:02;9.02;;;4.20;;
70073;SDS011;57445;51.058;3.698;2022-12-07T05:47:30;9.80;;;4.20;;
70073;SDS011;57445;51.058;3.698;2022-12-07T05:50:03;8.98;;;4.20;;
70073;SDS011;57445;51.058;3.698;2022-12-07T05:52:32;10.00;;;4.47;;
70073;SDS011;57445;51.058;3.698;2022-12-07T05:55:02;12.38;;;4.80;;
70073;SDS011;57445;51.058;3.698;2022-12-07T05:57:30;10.80;;;4.43;;
70073;SDS011;57445;51.058;3.698;2022-12-07T05:59:59;9.57;;;4.28;;
70073;SDS011;57445;51.058;3.698;2022-12-07T06:02:26;9.32;;;4.55;;
70073;SDS011;57445;51.058;3.698;2022-12-07T06:04:53;10.40;;;4.15;;
70073;SDS011;57445;51.058;3.698;2022-12-07T06:07:21;10.73;;;4.57;;
70073;SDS011;57445;51.058;3.698;2022-12-07T06:09:48;14.15;;;4.90;;
70073;SDS011;57445;51.058;3.698;2022-12-07T06:12:18;11.10;;;4.35;;
70073;SDS011;57445;51.058;3.698;2022-12-07T06:14:59;9.85;;;4.10;;
70073;SDS011;57445;51.058;3.698;2022-12-07T06:17:28;15.60;;;4.68;;
70073;SDS011;57445;51.058;3.698;2022-12-07T06:19:56;12.85;;;4.20;;
70073;SDS011;57445;51.058;3.698;2022-12-07T06:22:24;14.98;;;4.65;;
70073;SDS011;57445;51.058;3.698;2022-12-07T06:24:51;12.40;;;4.60;;
70073;SDS011;57445;51.058;3.698;2022-12-07T06:27:25;12.38;;;4.93;;
70073;SDS011;57445;51.058;3.698;2022-12-07T06:29:57;11.50;;;5.13;;
70073;SDS011;57445;51.058;3.698;2022-12-07T06:32:26;14.57;;;4.60;;
70073;SDS011;57445;51.058;3.698;2022-12-07T06:34:54;15.55;;;6.00;;
70073;SDS011;57445;51.058;3.698;2022-12-07T06:37:23;12.32;;;5.28;;
70073;SDS011;57445;51.058;3.698;2022-12-07T06:39:50;13.88;;;5.28;;
70073;SDS011;57445;51.058;3.698;2022-12-07T06:42:18;10.68;;;4.70;;
70073;SDS011;57445;51.058;3.698;2022-12-07T06:44:47;11.82;;;4.68;;
70073;SDS011;57445;51.058;3.698;2022-12-07T06:47:15;8.63;;;4.20;;
70073;SDS011;57445;51.058;3.698;2022-12-07T06:49:43;13.98;;;4.53;;
70073;SDS011;57445;51.058;3.698;2022-12-07T06:52:10;9.65;;;4.20;;
70073;SDS011;57445;51.058;3.698;2022-12-07T06:54:38;10.57;;;4.53;;
70073;SDS011;57445;51.058;3.698;2022-12-07T06:57:15;12.73;;;4.60;;
70073;SDS011;57445;51.058;3.698;2022-12-07T06:59:42;13.25;;;5.30;;
70073;SDS011;57445;51.058;3.698;2022-12-07T07:02:11;14.57;;;4.88;;
70073;SDS011;57445;51.058;3.698;2022-12-07T07:04:39;10.98;;;4.50;;
70073;SDS011;57445;51.058;3.698;2022-12-07T07:07:07;10.65;;;4.38;;
70073;SDS011;57445;51.058;3.698;2022-12-07T07:09:34;11.18;;;4.30;;
70073;SDS011;57445;51.058;3.698;2022-12-07T07:12:07;10.40;;;4.50;;
70073;SDS011;57445;51.058;3.698;2022-12-07T07:14:34;11.15;;;4.68;;
70073;SDS011;57445;51.058;3.698;2022-12-07T07:17:02;11.32;;;4.90;;
70073;SDS011;57445;51.058;3.698;2022-12-07T07:19:36;11.95;;;4.78;;
70073;SDS011;57445;51.058;3.698;2022-12-07T07:22:03;14.73;;;4.53;;
70073;SDS011;57445;51.058;3.698;2022-12-07T07:24:36;11.45;;;4.15;;
70073;SDS011;57445;51.058;3.698;2022-12-07T07:27:03;12.48;;;4.45;;
70073;SDS011;57445;51.058;3.698;2022-12-07T07:29:31;8.75;;;3.78;;
70073;SDS011;57445;51.058;3.698;2022-12-07T07:31:59;6.07;;;3.10;;
70073;SDS011;57445;51.058;3.698;2022-12-07T07:34:27;7.95;;;3.35;;
70073;SDS011;57445;51.058;3.698;2022-12-07T07:37:00;8.18;;;3.40;;
70073;SDS011;57445;51.058;3.698;2022-12-07T07:39:32;11.18;;;4.40;;
70073;SDS011;57445;51.058;3.698;2022-12-07T07:42:00;8.40;;;3.42;;
70073;SDS011;57445;51.058;3.698;2022-12-07T07:44:28;12.68;;;6.95;;
70073;SDS011;57445;51.058;3.698;2022-12-07T07:46:56;13.35;;;6.78;;
70073;SDS011;57445;51.058;3.698;2022-12-07T07:49:28;12.30;;;4.80;;
70073;SDS011;57445;51.058;3.698;2022-12-07T07:51:56;10.63;;;4.03;;
70073;SDS011;57445;51.058;3.698;2022-12-07T07:54:25;10.88;;;3.78;;
70073;SDS011;57445;51.058;3.698;2022-12-07T07:56:53;10.05;;;4.00;;
70073;SDS011;57445;51.058;3.698;2022-12-07T07:59:20;12.23;;;4.10;;
70073;SDS011;57445;51.058;3.698;2022-12-07T08:01:48;13.55;;;4.43;;
70073;SDS011;57445;51.058;3.698;2022-12-07T08:04:15;14.15;;;4.70;;
70073;SDS011;57445;51.058;3.698;2022-12-07T08:06:43;14.93;;;5.15;;
70073;SDS011;57445;51.058;3.698;2022-12-07T08:09:11;13.70;;;4.82;;
70073;SDS011;57445;51.058;3.698;2022-12-07T08:11:40;11.55;;;4.35;;
70073;SDS011;57445;51.058;3.698;2022-12-07T08:14:09;13.07;;;4.70;;
70073;SDS011;57445;51.058;3.698;2022-12-07T08:16:37;12.15;;;4.50;;
70073;SDS011;57445;51.058;3.698;2022-12-07T08:19:05;10.55;;;5.10;;
70073;SDS011;57445;51.058;3.698;2022-12-07T08:21:37;11.27;;;4.63;;
70073;SDS011;57445;51.058;3.698;2022-12-07T08:24:05;11.73;;;5.25;;
70073;SDS011;57445;51.058;3.698;2022-12-07T08:26:33;10.43;;;4.35;;
70073;SDS011;57445;51.058;3.698;2022-12-07T08:29:02;7.38;;;3.50;;
70073;SDS011;57445;51.058;3.698;2022-12-07T08:31:30;10.38;;;3.90;;
70073;SDS011;57445;51.058;3.698;2022-12-07T08:33:58;13.77;;;4.47;;
70073;SDS011;57445;51.058;3.698;2022-12-07T08:36:30;11.85;;;4.05;;
70073;SDS011;57445;51.058;3.698;2022-12-07T08:38:59;11.80;;;4.60;;
70073;SDS011;57445;51.058;3.698;2022-12-07T08:41:26;13.20;;;4.47;;
70073;SDS011;57445;51.058;3.698;2022-12-07T08:43:54;11.90;;;4.40;;
70073;SDS011;57445;51.058;3.698;2022-12-07T08:46:25;11.98;;;4.72;;
70073;SDS011;57445;51.058;3.698;2022-12-07T08:49:02;13.90;;;5.33;;
70073;SDS011;57445;51.058;3.698;2022-12-07T08:51:33;11.43;;;5.10;;
70073;SDS011;57445;51.058;3.698;2022-12-07T08:54:01;14.00;;;5.80;;
70073;SDS011;57445;51.058;3.698;2022-12-07T08:56:32;13.88;;;5.78;;
70073;SDS011;57445;51.058;3.698;2022-12-07T08:59:00;10.70;;;4.72;;
70073;SDS011;57445;51.058;3.698;2022-12-07T09:01:30;13.65;;;4.82;;
70073;SDS011;57445;51.058;3.698;2022-12-07T09:03:58;9.95;;;4.57;;
70073;SDS011;57445;51.058;3.698;2022-12-07T09:06:27;9.73;;;4.22;;
70073;SDS011;57445;51.058;3.698;2022-12-07T09:09:03;11.30;;;4.28;;
70073;SDS011;57445;51.058;3.698;2022-12-07T09:11:31;10.85;;;3.60;;
70073;SDS011;57445;51.058;3.698;2022-12-07T09:13:59;14.48;;;4.47;;
70073;SDS011;57445;51.058;3.698;2022-12-07T09:16:27;10.77;;;3.58;;
70073;SDS011;57445;51.058;3.698;2022-12-07T09:18:56;9.15;;;3.70;;
70073;SDS011;57445;51.058;3.698;2022-12-07T09:21:24;7.95;;;3.50;;
70073;SDS011;57445;51.058;3.698;2022-12-07T09:23:52;13.80;;;3.72;;
70073;SDS011;57445;51.058;3.698;2022-12-07T09:26:20;8.85;;;3.20;;
70073;SDS011;57445;51.058;3.698;2022-12-07T09:28:48;8.82;;;3.42;;
70073;SDS011;57445;51.058;3.698;2022-12-07T09:31:16;11.35;;;3.28;;
70073;SDS011;57445;51.058;3.698;2022-12-07T09:33:44;11.43;;;3.45;;
70073;SDS011;57445;51.058;3.698;2022-12-07T09:36:13;9.68;;;3.38;;
70073;SDS011;57445;51.058;3.698;2022-12-07T09:38:41;7.60;;;2.78;;
70073;SDS011;57445;51.058;3.698;2022-12-07T09:41:14;10.82;;;5.15;;
70073;SDS011;57445;51.058;3.698;2022-12-07T09:43:46;11.32;;;4.00;;
70073;SDS011;57445;51.058;3.698;2022-12-07T09:46:15;14.13;;;4.72;;
70073;SDS011;57445;51.058;3.698;2022-12-07T09:48:44;8.75;;;3.58;;
70073;SDS011;57445;51.058;3.698;2022-12-07T09:51:16;9.05;;;3.40;;
70073;SDS011;57445;51.058;3.698;2022-12-07T09:53:50;10.15;;;3.17;;
70073;SDS011;57445;51.058;3.698;2022-12-07T09:56:20;9.77;;;3.95;;
70073;SDS011;57445;51.058;3.698;2022-12-07T09:58:51;10.77;;;5.47;;
70073;SDS011;57445;51.058;3.698;2022-12-07T10:01:23;11.13;;;5.30;;
70073;SDS011;57445;51.058;3.698;2022-12-07T10:03:51;13.98;;;5.43;;
70073;SDS011;57445;51.058;3.698;2022-12-07T10:06:22;11.93;;;4.53;;
70073;SDS011;57445;51.058;3.698;2022-12-07T10:08:51;9.77;;;3.80;;
70073;SDS011;57445;51.058;3.698;2022-12-07T10:11:19;10.88;;;3.90;;
70073;SDS011;57445;51.058;3.698;2022-12-07T10:13:48;11.00;;;4.70;;
70073;SDS011;57445;51.058;3.698;2022-12-07T10:19:19;12.45;;;4.30;;
70073;SDS011;57445;51.058;3.698;2022-12-07T10:22:01;13.18;;;4.10;;
70073;SDS011;57445;51.058;3.698;2022-12-07T10:24:35;14.77;;;4.85;;
70073;SDS011;57445;51.058;3.698;2022-12-07T10:27:09;11.77;;;3.90;;
70073;SDS011;57445;51.058;3.698;2022-12-07T10:29:51;11.10;;;3.75;;
70073;SDS011;57445;51.058;3.698;2022-12-07T10:32:27;11.18;;;4.05;;
70073;SDS011;57445;51.058;3.698;2022-12-07T10:37:58;11.20;;;4.22;;
70073;SDS011;57445;51.058;3.698;2022-12-07T10:40:28;9.07;;;3.65;;
70073;SDS011;57445;51.058;3.698;2022-12-07T10:43:00;15.18;;;3.97;;
70073;SDS011;57445;51.058;3.698;2022-12-07T10:45:29;13.40;;;4.30;;
70073;SDS011;57445;51.058;3.698;2022-12-07T10:48:04;10.98;;;3.75;;
70073;SDS011;57445;51.058;3.698;2022-12-07T10:50:47;14.80;;;4.82;;
70073;SDS011;57445;51.058;3.698;2022-12-07T10:53:34;12.80;;;4.03;;
70073;SDS011;57445;51.058;3.698;2022-12-07T10:56:29;11.35;;;4.40;;
70073;SDS011;57445;51.058;3.698;2022-12-07T11:02:32;8.77;;;2.85;;
70073;SDS011;57445;51.058;3.698;2022-12-07T11:05:29;7.63;;;3.50;;
70073;SDS011;57445;51.058;3.698;2022-12-07T11:08:03;8.55;;;3.42;;
70073;SDS011;57445;51.058;3.698;2022-12-07T11:10:49;9.82;;;3.70;;
70073;SDS011;57445;51.058;3.698;2022-12-07T11:13:28;10.02;;;3.90;;
70073;SDS011;57445;51.058;3.698;2022-12-07T11:16:19;8.00;;;3.58;;
70073;SDS011;57445;51.058;3.698;2022-12-07T11:18:55;10.90;;;3.83;;
70073;SDS011;57445;51.058;3.698;2022-12-07T11:21:35;8.90;;;3.53;;
70073;SDS011;57445;51.058;3.698;2022-12-07T11:24:13;7.28;;;3.28;;
70073;SDS011;57445;51.058;3.698;2022-12-07T11:26:50;7.38;;;2.90;;
70073;SDS011;57445;51.058;3.698;2022-12-07T11:29:44;9.60;;;3.17;;
70073;SDS011;57445;51.058;3.698;2022-12-07T11:32:22;7.78;;;3.17;;
70073;SDS011;57445;51.058;3.698;2022-12-07T11:35:11;8.50;;;2.90;;
70073;SDS011;57445;51.058;3.698;2022-12-07T11:37:48;8.38;;;3.00;;
70073;SDS011;57445;51.058;3.698;2022-12-07T11:40:20;8.25;;;2.80;;
70073;SDS011;57445;51.058;3.698;2022-12-07T11:43:01;8.30;;;3.30;;
70073;SDS011;57445;51.058;3.698;2022-12-07T11:45:32;10.00;;;3.17;;
70073;SDS011;57445;51.058;3.698;2022-12-07T11:48:09;7.68;;;2.75;;
70073;SDS011;57445;51.058;3.698;2022-12-07T11:50:47;8.48;;;3.10;;
70073;SDS011;57445;51.058;3.698;2022-12-07T11:53:20;7.95;;;2.80;;
70073;SDS011;57445;51.058;3.698;2022-12-07T11:55:53;7.22;;;2.90;;
70073;SDS011;57445;51.058;3.698;2022-12-07T11:58:35;8.73;;;3.28;;
70073;SDS011;57445;51.058;3.698;2022-12-07T12:01:12;6.07;;;2.30;;
70073;SDS011;57445;51.058;3.698;2022-12-07T12:03:51;8.13;;;2.30;;
